Flight Track Log - Related Links

Times and Time Zones

All times are in EDT time to prevent confusion due to time zone crossing. See the ASQ6023 flight status page for this flight to view local times or setup timezone preferences in your user account.

Time Position Orientation Groundspeed Altitude Reporting Facility
EDT Latitude Longitude Course Direction KTS MPH feet Rate Location/Type
Wed 11:53:29 AM 41.3108 -95.9094 334° Northwest 149 171 1,300  Level Minneapolis Center
Wed 11:53:47 AM 41.3217 -95.9164 334° Northwest 154 177 2,000 2,301 Climbing Minneapolis Center
Wed 11:54:42 AM 41.3589 -95.9094 North 176 203 4,100 2,051 Climbing Minneapolis Center
Wed 11:55:44 AM 41.4089 -95.8703 30° Northeast 195 224 6,000 2,000 Climbing Minneapolis Center
Wed 11:56:45 AM 41.4872 -95.8072 31° Northeast 248 285 8,200 2,293 Climbing Minneapolis Center
Wed 11:57:47 AM 41.5492 -95.7211 46° Northeast 295 339 10,700 1,805 Climbing Minneapolis Center
Wed 11:58:48 AM 41.6178 -95.6317 44° Northeast 320 368 11,900 927 Climbing Minneapolis Center
Wed 11:59:50 AM 41.7003 -95.5219 45° Northeast 377 434 12,600 1,065 Climbing Minneapolis Center
Wed 12:00:52 PM 41.7542 -95.3814 63° Northeast 411 473 14,100 1,561 Climbing Minneapolis Center
Wed 12:01:53 PM 41.7806 -95.2247 77° East 423 487 15,800 1,610 Climbing Minneapolis Center
Wed 12:02:55 PM 41.8042 -95.0653 79° East 432 497 17,400 1,366 Climbing Minneapolis Center
Wed 12:03:56 PM 41.8292 -94.9064 78° East 437 503 18,600 1,512 Climbing Minneapolis Center
Wed 12:04:58 PM 41.8586 -94.7142 78° East 439 505 20,500 1,645 Climbing Minneapolis Center
Wed 12:06:00 PM 41.8836 -94.5539 78° East 439 505 22,000 1,366 Climbing Minneapolis Center
Wed 12:07:01 PM 41.9072 -94.3917 79° East 442 509 23,300 1,366 Climbing Minneapolis Center
Wed 12:08:03 PM 41.9331 -94.2300 78° East 442 509 24,800 1,415 Climbing Minneapolis Center
Wed 12:09:04 PM 41.9564 -94.0689 79° East 441 507 26,200 1,366 Climbing Minneapolis Center
Wed 12:10:06 PM 41.9792 -93.9100 79° East 435 501 27,600 1,258 Climbing Minneapolis Center
Wed 12:11:08 PM 42.0053 -93.7425 78° East 433 498 28,800 683 Climbing Minneapolis Center
Wed 12:12:09 PM 42.0281 -93.5808 79° East 441 507 29,000 98 Climbing Minneapolis Center
Wed 12:13:11 PM 42.0528 -93.4122 79° East 460 529 29,000  Level Minneapolis Center
Wed 12:14:13 PM 42.0761 -93.2375 80° East 475 547 29,000  Level Minneapolis Center
Wed 12:15:14 PM 42.1064 -93.0250 79° East 485 558 29,000  Level Minneapolis Center
Wed 12:16:16 PM 42.1294 -92.8483 80° East 484 557 29,000  Level Minneapolis Center
Wed 12:17:18 PM 42.1536 -92.6739 79° East 481 554 29,000  Level Minneapolis Center
Wed 12:18:20 PM 42.1778 -92.5006 79° East 479 551 29,000  Level Minneapolis Center
Wed 12:19:21 PM 42.2003 -92.3264 80° East 478 550 29,000  Level Minneapolis Center
Wed 12:20:23 PM 42.2278 -92.1194 80° East 475 547 29,000  Level Minneapolis Center
Wed 12:21:12 PM 42.2456 -91.9800 80° East 472 543 29,000  Level Chicago Center
Wed 12:22:14 PM 42.2889 -91.8294 69° East 443 510 29,000  Level Chicago Center
Wed 12:23:16 PM 42.3703 -91.7172 46° Northeast 425 489 29,000  Level Chicago Center
Wed 12:24:18 PM 42.4525 -91.6100 44° Northeast 417 480 29,000  Level Chicago Center
Wed 12:25:20 PM 42.5522 -91.4803 44° Northeast 421 484 29,000 -145 Level Chicago Center
Wed 12:26:22 PM 42.6044 -91.3469 62° Northeast 408 470 28,700 -976 Descending Chicago Center
Wed 12:27:23 PM 42.6031 -91.1947 91° East 410 472 27,000 -1,707 Descending Chicago Center
Wed 12:28:25 PM 42.6008 -91.0464 91° East 401 461 25,200 -1,452 Descending Chicago Center
Wed 12:29:27 PM 42.5978 -90.8747 91° East 386 444 24,000 -581 Descending Chicago Center
Wed 12:30:29 PM 42.5956 -90.7233 91° East 402 463 24,000  Level Chicago Center
Wed 12:31:31 PM 42.5917 -90.5661 92° East 419 482 24,000  Level Chicago Center
Wed 12:32:33 PM 42.5900 -90.4114 91° East 417 480 24,000  Level Chicago Center
Wed 12:33:36 PM 42.5872 -90.2575 91° East 413 475 24,000  Level Chicago Center
Wed 12:34:38 PM 42.5819 -90.0742 92° East 410 472 24,000  Level Chicago Center
Wed 12:35:40 PM 42.5794 -89.9217 91° East 409 471 24,000  Level Chicago Center
Wed 12:36:42 PM 42.5761 -89.7636 92° East 426 490 24,000  Level Chicago Center
Wed 12:37:44 PM 42.5711 -89.6000 92° East 433 498 24,000 -242 Level Chicago Center
Wed 12:38:46 PM 42.5656 -89.4142 92° East 426 490 23,500 -1,403 Descending Chicago Center
Wed 12:39:48 PM 42.5617 -89.2544 92° East 423 487 21,100 -2,274 Descending Chicago Center
Wed 12:40:50 PM 42.5536 -89.0986 94° East 418 481 18,800 -2,129 Descending Chicago Center
Wed 12:41:52 PM 42.5139 -88.9569 111° Southeast 403 464 16,700 -2,129 Descending Chicago Center
Wed 12:42:54 PM 42.4731 -88.8250 113° Southeast 384 442 14,400 -2,419 Descending Chicago Center
Wed 12:43:56 PM 42.4294 -88.6800 112° Southeast 358 412 11,700 -2,081 Descending Chicago Center
Wed 12:44:58 PM 42.3936 -88.5639 113° Southeast 338 389 10,100 -823 Descending Chicago Center
Wed 12:46:00 PM 42.3597 -88.4472 111° Southeast 335 386 10,000 -48 Descending Chicago Center
Wed 12:47:02 PM 42.3153 -88.3478 121° Southeast 330 380 10,000  Level Chicago Center
Wed 12:48:05 PM 42.2478 -88.2339 129° Southeast 326 375 10,000  Level Chicago Center
Wed 12:49:07 PM 42.1897 -88.1386 129° Southeast 328 377 10,000 -290 Level Chicago Center
Wed 12:50:09 PM 42.1319 -88.0750 141° Southeast 277 319 9,400 -1,113 Descending Chicago Center
Wed 12:51:11 PM 42.0919 -88.0000 126° Southeast 260 299 7,700 -1,161 Descending Chicago Center
Wed 12:52:13 PM 42.0914 -87.8989 90° East 270 311 7,000 -968 Descending Chicago Center
Wed 12:53:15 PM 42.0906 -87.7861 91° East 249 287 5,700 -1,729 Descending Chicago Center
Wed 12:54:11 PM 42.0833 -87.7167 98° East 236 272 3,600 -1,397 Descending Chicago TRACON
Wed 12:55:11 PM 42.0333 -87.7333 194° South 215 247 3,000 -700 Descending Chicago TRACON
Wed 12:56:11 PM 42.0000 -87.7833 228° Southwest 190 219 2,200 -800 Descending Chicago TRACON
Wed 12:57:11 PM 42.0000 -87.8500 270° West 147 169 1,400 -800 Descending Chicago TRACON
Wed 12:59:00 PM 41.9667 -87.9000 229° Southwest  Level FlightAware Approximate
Wed 01:06:00 PM 41.9817 -87.9067 229° Southwest  Level Estimated
Wed 01:07:00 PM 41.9817 -87.9067 229° Southwest  Level Estimated

Login

Don't have an account? Register now (free) for customized features, flight alerts, and more!